Time;durP1;ratioP1;P1;durP2;ratioP2;P2;SDS_P1;SDS_P2;PMS_P1;PMS_P2;Temp;Humidity;BMP_temperature;BMP_pressure;BME280_temperature;BME280_humidity;BME280_pressure;Samples;Min_cycle;Max_cycle;Signal;HPM_P1;HPM_P2
2023/09/20 00:00:08;;;;;;;3.85;2.63;;;15.30;1.00;;;;;;10500253;28;20213;-79
2023/09/20 00:05:29;;;;;;;5.40;2.90;;;15.20;1.00;;;;;;10452762;28;20201;-78
2023/09/20 00:11:15;;;;;;;5.93;2.85;;;15.20;1.00;;;;;;10485263;28;20254;-79
2023/09/20 00:16:36;;;;;;;6.53;2.50;;;15.10;99.90;;;;;;10514478;28;20402;-79
2023/09/20 00:21:58;;;;;;;9.98;5.47;;;15.10;99.90;;;;;;10501965;28;20414;-79
2023/09/20 00:27:19;;;;;;;6.00;3.50;;;15.00;99.90;;;;;;10463661;28;20202;-78
2023/09/20 00:32:42;;;;;;;4.95;2.70;;;15.00;99.90;;;;;;10481028;28;20672;-78
2023/09/20 00:38:04;;;;;;;9.07;3.45;;;15.00;99.90;;;;;;10465940;28;20194;-78
2023/09/20 00:43:27;;;;;;;4.55;2.88;;;;;;;;;;10469250;28;20234;-78
2023/09/20 00:48:54;;;;;;;6.40;2.75;;;;;;;;;;10479073;28;20189;-77
2023/09/20 00:54:17;;;;;;;5.07;2.60;;;14.90;1.00;;;;;;10492594;28;20213;-77
2023/09/20 00:59:40;;;;;;;5.57;2.80;;;14.80;1.00;;;;;;10465362;28;20317;-76
2023/09/20 01:05:04;;;;;;;5.28;2.88;;;14.70;1.00;;;;;;10430043;28;20366;-77
2023/09/20 01:10:27;;;;;;;6.43;2.85;;;14.70;1.00;;;;;;10437001;28;20411;-77
2023/09/20 01:15:48;;;;;;;5.65;2.72;;;14.70;1.00;;;;;;10477865;28;20436;-77
2023/09/20 01:21:11;;;;;;;5.18;3.08;;;14.60;1.00;;;;;;10465784;28;20534;-78
2023/09/20 01:26:34;;;;;;;7.40;2.70;;;14.50;1.00;;;;;;10478123;28;20407;-78
2023/09/20 01:32:01;;;;;;;7.55;2.80;;;14.50;1.00;;;;;;10468354;28;20230;-78
2023/09/20 01:37:22;;;;;;;6.03;3.00;;;14.60;99.90;;;;;;10421971;28;20269;-77
2023/09/20 01:42:50;;;;;;;9.18;3.33;;;14.50;99.90;;;;;;10435733;28;20232;-78
2023/09/20 01:48:12;;;;;;;9.10;3.05;;;;;;;;;;10436887;28;20416;-78
2023/09/20 01:53:36;;;;;;;15.80;2.60;;;;;;;;;;10451919;28;20249;-78
2023/09/20 01:58:58;;;;;;;5.88;2.67;;;;;;;;;;10450430;28;20261;-78
2023/09/20 02:04:20;;;;;;;5.40;2.85;;;;;;;;;;10435252;28;20239;-78
2023/09/20 02:09:42;;;;;;;5.38;2.75;;;;;;;;;;10435161;28;20401;-78
2023/09/20 02:15:07;;;;;;;6.63;3.15;;;;;;;;;;10463672;28;20202;-78
2023/09/20 02:20:39;;;;;;;6.35;2.85;;;14.50;1.00;;;;;;10447060;28;20272;-78
2023/09/20 02:26:00;;;;;;;5.80;2.80;;;14.50;1.00;;;;;;10449619;28;20197;-77
2023/09/20 02:31:23;;;;;;;7.35;3.03;;;14.50;1.00;;;;;;10444426;28;20201;-77
2023/09/20 02:36:44;;;;;;;5.22;2.75;;;14.40;1.00;;;;;;10444338;28;20413;-76
2023/09/20 02:42:06;;;;;;;4.85;2.72;;;14.50;1.00;;;;;;10473836;28;20520;-78
2023/09/20 02:47:28;;;;;;;3.67;2.45;;;14.50;1.00;;;;;;10483815;28;20403;-78
2023/09/20 02:52:51;;;;;;;6.25;3.50;;;14.40;1.00;;;;;;10469285;28;20217;-77
2023/09/20 02:58:13;;;;;;;5.63;2.80;;;14.30;1.00;;;;;;10483609;28;20230;-78
2023/09/20 03:03:34;;;;;;;5.65;2.85;;;14.30;1.00;;;;;;10456050;28;20268;-78
2023/09/20 03:08:57;;;;;;;4.43;2.45;;;14.30;1.00;;;;;;10462191;28;20217;-78
2023/09/20 03:14:19;;;;;;;4.28;2.50;;;14.30;1.00;;;;;;10472158;28;20195;-78
2023/09/20 03:19:41;;;;;;;5.53;2.95;;;14.20;1.00;;;;;;10472775;28;20286;-77
2023/09/20 03:25:21;;;;;;;5.75;3.38;;;14.10;99.90;;;;;;10443781;28;20237;-78
2023/09/20 03:30:44;;;;;;;7.20;6.18;;;14.10;1.00;;;;;;10458735;28;20214;-77
2023/09/20 03:36:15;;;;;;;8.52;4.28;;;14.10;1.00;;;;;;10454974;28;20214;-76
2023/09/20 03:41:38;;;;;;;13.80;8.95;;;14.10;1.00;;;;;;10442161;28;20543;-76
2023/09/20 03:47:00;;;;;;;8.63;4.75;;;14.00;1.00;;;;;;10457083;28;20426;-78
2023/09/20 03:52:22;;;;;;;4.97;3.50;;;14.10;1.00;;;;;;10457781;28;20201;-77
2023/09/20 03:57:43;;;;;;;6.28;3.15;;;14.00;1.00;;;;;;10439729;28;20237;-79
2023/09/20 04:03:13;;;;;;;4.90;3.13;;;14.00;1.00;;;;;;10460253;28;20241;-79
2023/09/20 04:08:35;;;;;;;5.07;2.88;;;14.00;1.00;;;;;;10439676;28;20204;-77
2023/09/20 04:13:57;;;;;;;3.83;2.78;;;14.00;1.00;;;;;;10450157;28;20204;-78
2023/09/20 04:19:20;;;;;;;5.30;2.85;;;14.00;1.00;;;;;;10474721;28;20196;-77
2023/09/20 04:24:42;;;;;;;6.50;3.25;;;14.00;1.00;;;;;;10438987;28;20332;-77
2023/09/20 04:30:07;;;;;;;8.10;3.83;;;14.00;1.00;;;;;;10424355;28;20235;-77
2023/09/20 04:35:31;;;;;;;9.73;3.05;;;14.10;1.00;;;;;;10438626;28;20215;-77
2023/09/20 04:40:56;;;;;;;4.68;2.90;;;14.00;1.00;;;;;;10437585;28;20223;-77
2023/09/20 04:46:18;;;;;;;8.63;3.15;;;14.00;1.00;;;;;;10437986;28;20228;-78
2023/09/20 04:51:40;;;;;;;8.63;3.28;;;;;;;;;;10437449;28;20213;-77
2023/09/20 04:57:04;;;;;;;8.90;3.40;;;;;;;;;;10456823;28;20237;-77
2023/09/20 05:02:26;;;;;;;6.40;3.38;;;;;;;;;;10498376;28;20225;-78
2023/09/20 05:07:51;;;;;;;5.65;3.28;;;;;;;;;;10464611;28;20218;-78
2023/09/20 05:13:13;;;;;;;5.20;3.13;;;;;;;;;;10486991;28;20525;-77
2023/09/20 05:18:36;;;;;;;3.72;2.63;;;;;;;;;;10488848;28;20202;-78
2023/09/20 05:24:00;;;;;;;5.72;3.25;;;;;;;;;;10465340;28;20240;-77
2023/09/20 05:29:22;;;;;;;6.22;2.88;;;;;;;;;;10481122;28;20472;-78
2023/09/20 05:34:46;;;;;;;5.10;3.10;;;;;;;;;;10477670;28;20190;-77
2023/09/20 05:40:17;;;;;;;6.38;2.92;;;;;;;;;;10477435;28;20523;-77
2023/09/20 05:45:40;;;;;;;5.60;3.30;;;;;;;;;;10459816;28;20198;-77
2023/09/20 05:51:03;;;;;;;7.35;3.20;;;;;;;;;;10494361;28;20201;-78
2023/09/20 05:56:25;;;;;;;4.30;2.65;;;;;;;;;;10477178;28;20244;-77
2023/09/20 06:01:47;;;;;;;9.10;3.08;;;;;;;;;;10484243;28;20468;-77
2023/09/20 06:07:09;;;;;;;9.70;3.25;;;;;;;;;;10477033;28;20196;-78
2023/09/20 06:12:31;;;;;;;6.07;3.10;;;;;;;;;;10502763;28;20213;-77
2023/09/20 06:17:58;;;;;;;6.18;3.00;;;;;;;;;;10477654;28;20200;-78
2023/09/20 06:23:30;;;;;;;4.10;2.25;;;;;;;;;;10482557;28;20297;-78
2023/09/20 06:28:51;;;;;;;5.57;2.35;;;15.50;1.00;;;;;;10462026;28;20418;-78
2023/09/20 06:34:17;;;;;;;4.45;2.75;;;15.60;1.00;;;;;;10473321;28;20238;-77
2023/09/20 06:39:38;;;;;;;4.60;2.47;;;15.90;1.00;;;;;;10480179;28;20186;-78
2023/09/20 06:45:00;;;;;;;8.30;3.15;;;16.10;1.00;;;;;;10477054;28;20233;-78
2023/09/20 06:50:21;;;;;;;9.13;3.38;;;16.40;1.00;;;;;;10480351;28;20206;-78
2023/09/20 06:55:44;;;;;;;7.43;2.88;;;16.60;1.00;;;;;;10489763;28;20261;-78
2023/09/20 07:01:06;;;;;;;13.88;3.67;;;16.80;1.00;;;;;;10486115;28;20535;-78
2023/09/20 07:06:31;;;;;;;3.83;2.28;;;16.80;1.00;;;;;;10475236;28;20439;-78
2023/09/20 07:11:53;;;;;;;4.72;2.28;;;16.90;1.00;;;;;;10475451;28;20531;-79
2023/09/20 07:17:17;;;;;;;8.82;3.20;;;17.10;1.00;;;;;;10502348;28;20202;-78
2023/09/20 07:22:41;;;;;;;5.57;2.90;;;17.20;1.00;;;;;;10493658;28;20516;-79
2023/09/20 07:28:06;;;;;;;7.00;2.75;;;17.30;1.00;;;;;;10482426;28;20226;-79
2023/09/20 07:33:29;;;;;;;6.85;2.50;;;17.30;1.00;;;;;;10477091;28;20211;-78
2023/09/20 07:38:50;;;;;;;15.50;6.57;;;17.30;1.00;;;;;;10489660;28;20180;-78
2023/09/20 07:44:15;;;;;;;9.65;3.05;;;17.50;1.00;;;;;;10503974;28;20222;-78
2023/09/20 07:49:39;;;;;;;7.43;3.08;;;17.40;1.00;;;;;;10536628;28;20212;-78
2023/09/20 07:55:04;;;;;;;5.32;2.45;;;17.40;1.00;;;;;;10486810;28;20300;-81
2023/09/20 08:00:26;;;;;;;6.78;2.25;;;17.40;1.00;;;;;;10486006;28;20257;-77
2023/09/20 08:05:52;;;;;;;7.05;2.55;;;17.40;1.00;;;;;;10489343;28;20239;-80
2023/09/20 08:11:14;;;;;;;10.05;2.78;;;17.50;1.00;;;;;;10504207;28;20213;-78
2023/09/20 08:16:37;;;;;;;6.65;3.25;;;17.50;1.00;;;;;;10513945;28;20204;-79
2023/09/20 08:22:15;;;;;;;6.95;2.65;;;17.50;1.00;;;;;;10512840;28;20469;-78
2023/09/20 09:01:55;;;;;;;4.25;2.50;;;18.00;1.00;;;;;;10472760;28;20293;-80
2023/09/20 09:07:18;;;;;;;5.90;2.25;;;18.10;1.00;;;;;;10495866;28;20213;-80
2023/09/20 09:12:42;;;;;;;5.50;2.65;;;18.30;99.90;;;;;;10499504;28;20196;-79
2023/09/20 09:18:13;;;;;;;6.00;2.95;;;;;;;;;;10495765;28;20278;-82
2023/09/20 09:23:36;;;;;;;4.75;2.20;;;20.10;99.90;;;;;;10511461;28;20234;-80
2023/09/20 09:28:59;;;;;;;12.00;3.22;;;;;;;;;;10511052;28;20207;-79
2023/09/20 09:34:21;;;;;;;9.10;4.20;;;;;;;;;;10507649;28;20211;-78
2023/09/20 09:40:00;;;;;;;8.98;4.10;;;22.40;99.90;;;;;;10478820;28;20207;-78
2023/09/20 09:45:31;;;;;;;18.90;4.00;;;23.40;1.00;;;;;;10489953;28;20222;-78
2023/09/20 09:50:55;;;;;;;6.10;2.50;;;23.80;99.90;;;;;;10496226;28;20218;-77
2023/09/20 09:56:17;;;;;;;3.58;2.10;;;24.20;99.90;;;;;;10504705;28;20435;-81
2023/09/20 10:01:41;;;;;;;15.02;4.05;;;24.70;99.90;;;;;;10480510;28;20602;-77
2023/09/20 10:07:16;;;;;;;9.88;3.17;;;24.60;99.90;;;;;;10501735;28;20199;-81
2023/09/20 10:12:38;;;;;;;20.02;4.55;;;23.90;99.90;;;;;;10495853;28;20197;-80
2023/09/20 10:18:00;;;;;;;8.77;2.38;;;23.70;99.90;;;;;;10497331;28;20213;-75
2023/09/20 10:23:22;;;;;;;6.10;2.58;;;23.90;99.90;;;;;;10493405;28;20215;-80
2023/09/20 10:28:45;;;;;;;3.08;1.63;;;24.20;99.90;;;;;;10489180;28;20214;-82
2023/09/20 10:34:06;;;;;;;3.95;2.08;;;24.20;99.90;;;;;;10507642;28;20218;-79
2023/09/20 10:39:29;;;;;;;3.88;2.25;;;24.20;99.90;;;;;;10513221;28;20194;-79
2023/09/20 10:44:51;;;;;;;4.45;2.60;;;23.70;99.90;;;;;;10506938;28;20211;-78
2023/09/20 10:50:13;;;;;;;6.03;2.60;;;23.30;99.90;;;;;;10498905;28;20195;-78
2023/09/20 10:55:35;;;;;;;6.10;1.88;;;23.30;99.90;;;;;;10500913;28;20230;-78
2023/09/20 11:00:57;;;;;;;17.90;3.72;;;23.60;99.90;;;;;;10518206;28;20292;-79
2023/09/20 11:06:19;;;;;;;13.32;2.38;;;24.40;99.90;;;;;;10516406;28;20242;-82
2023/09/20 11:11:42;;;;;;;27.48;5.57;;;25.00;99.90;;;;;;10520210;28;20501;-76
2023/09/20 11:17:05;;;;;;;36.13;5.82;;;;;;;;;;10504586;28;20211;-79
2023/09/20 11:22:26;;;;;;;9.32;1.95;;;26.40;99.90;;;;;;10519602;28;20294;-77
2023/09/20 11:27:49;;;;;;;3.60;1.67;;;25.80;99.90;;;;;;10487299;28;20231;-77
2023/09/20 11:33:43;;;;;;;4.97;3.17;;;25.50;99.90;;;;;;10503552;28;20233;-77
2023/09/20 11:39:05;;;;;;;9.88;2.10;;;24.50;99.90;;;;;;10441610;28;20234;-76
2023/09/20 11:44:27;;;;;;;7.45;1.75;;;24.20;99.90;;;;;;10450301;28;20242;-77
2023/09/20 11:49:50;;;;;;;10.95;2.08;;;24.40;99.90;;;;;;10470742;28;20203;-82
2023/09/20 11:55:13;;;;;;;4.53;1.70;;;24.80;99.90;;;;;;10435559;28;20239;-81
2023/09/20 12:00:35;;;;;;;3.90;1.63;;;24.40;99.90;;;;;;10439320;28;20379;-77
2023/09/20 12:05:57;;;;;;;21.40;2.67;;;24.80;99.90;;;;;;10462677;28;20243;-80
2023/09/20 12:11:20;;;;;;;5.55;1.80;;;25.80;99.90;;;;;;10456475;28;20505;-78
2023/09/20 12:16:47;;;;;;;11.70;1.90;;;25.70;99.90;;;;;;10504623;28;20202;-78
2023/09/20 12:22:09;;;;;;;4.43;1.55;;;25.00;99.90;;;;;;10512545;28;20485;-77
2023/09/20 12:27:30;;;;;;;5.28;1.48;;;24.80;99.90;;;;;;10519258;28;20508;-77
2023/09/20 12:32:53;;;;;;;12.70;2.30;;;25.00;99.90;;;;;;10545759;28;20283;-81
2023/09/20 12:38:14;;;;;;;12.98;2.40;;;25.40;99.90;;;;;;10493260;28;20214;-78
2023/09/20 12:43:37;;;;;;;2.83;1.40;;;25.80;99.90;;;;;;10516802;28;20250;-82
2023/09/20 12:48:59;;;;;;;6.68;1.90;;;25.40;99.90;;;;;;10496487;28;20196;-75
2023/09/20 12:54:21;;;;;;;5.65;1.60;;;24.90;99.90;;;;;;10513417;28;20199;-83
2023/09/20 12:59:42;;;;;;;6.82;2.00;;;24.40;99.90;;;;;;10496410;28;20236;-79
2023/09/20 13:05:06;;;;;;;9.32;6.38;;;23.90;99.90;;;;;;10516028;28;20589;-84
2023/09/20 13:10:27;;;;;;;12.20;2.05;;;23.70;99.90;;;;;;10510524;28;20203;-81
2023/09/20 13:15:50;;;;;;;7.80;1.70;;;24.40;99.90;;;;;;10532362;28;20207;-83
2023/09/20 13:21:12;;;;;;;3.35;1.48;;;25.10;99.90;;;;;;10483753;28;20211;-77
2023/09/20 13:26:35;;;;;;;8.70;3.80;;;25.00;99.90;;;;;;10499483;28;20402;-85
2023/09/20 13:31:58;;;;;;;5.20;2.28;;;25.10;99.90;;;;;;10486451;28;20394;-82
2023/09/20 13:37:21;;;;;;;2.75;1.70;;;25.40;99.90;;;;;;10517300;28;20447;-87
2023/09/20 13:42:43;;;;;;;4.13;2.20;;;24.80;99.90;;;;;;10469392;28;20223;-82
2023/09/20 13:48:05;;;;;;;6.28;1.95;;;24.20;99.90;;;;;;10472807;28;20624;-83
2023/09/20 13:53:27;;;;;;;2.47;1.63;;;24.20;99.90;;;;;;10478040;28;20266;-82
2023/09/20 13:58:48;;;;;;;3.95;2.33;;;23.90;99.90;;;;;;10494959;28;20245;-84
2023/09/20 14:04:10;;;;;;;2.42;1.60;;;23.30;99.90;;;;;;10499694;28;20246;-82
2023/09/20 14:09:32;;;;;;;6.28;1.67;;;22.90;99.90;;;;;;10497134;28;20230;-79
2023/09/20 14:14:54;;;;;;;5.97;3.10;;;22.50;99.90;;;;;;10486371;28;20342;-81
2023/09/20 14:20:18;;;;;;;4.10;1.60;;;22.60;99.90;;;;;;10460109;28;20187;-80
2023/09/20 14:25:40;;;;;;;4.30;1.65;;;22.40;99.90;;;;;;10478711;28;20310;-83
2023/09/20 14:31:02;;;;;;;6.18;1.83;;;22.20;99.90;;;;;;10503125;28;20203;-86
2023/09/20 14:36:25;;;;;;;3.78;1.60;;;22.30;99.90;;;;;;10496757;28;20260;-80
2023/09/20 14:41:46;;;;;;;1.80;1.40;;;22.40;99.90;;;;;;10506123;28;20251;-81
2023/09/20 14:47:08;;;;;;;3.80;1.50;;;22.60;99.90;;;;;;10494013;28;20219;-82
2023/09/20 14:52:30;;;;;;;3.42;2.38;;;22.70;99.90;;;;;;10504772;28;20215;-79
2023/09/20 14:57:54;;;;;;;2.72;1.67;;;22.60;99.90;;;;;;10479906;28;20568;-79
2023/09/20 15:03:17;;;;;;;2.45;1.25;;;22.60;99.90;;;;;;10511067;28;20264;-81
2023/09/20 15:08:38;;;;;;;2.28;1.48;;;22.60;99.90;;;;;;10491967;28;20274;-81
2023/09/20 15:14:00;;;;;;;3.58;1.73;;;22.40;99.90;;;;;;10502769;28;20202;-82
2023/09/20 15:19:21;;;;;;;2.00;1.10;;;22.20;99.90;;;;;;10466219;28;20199;-84
2023/09/20 15:24:43;;;;;;;2.92;1.60;;;22.10;99.90;;;;;;10480849;28;20231;-83
2023/09/20 15:30:07;;;;;;;2.30;1.30;;;22.00;99.90;;;;;;10483762;28;20180;-80
2023/09/20 15:35:28;;;;;;;2.10;1.30;;;21.90;99.90;;;;;;10479598;28;20207;-84
2023/09/20 15:40:50;;;;;;;3.50;1.50;;;21.80;99.90;;;;;;10481303;28;20229;-83
2023/09/20 15:46:14;;;;;;;4.47;1.80;;;21.70;99.90;;;;;;10501193;28;20223;-84
2023/09/20 15:51:35;;;;;;;4.97;1.52;;;21.60;99.90;;;;;;10465006;28;20274;-81
2023/09/20 15:56:57;;;;;;;5.88;1.70;;;21.40;99.90;;;;;;10488211;28;20239;-83
2023/09/20 16:02:18;;;;;;;2.42;1.17;;;21.40;99.90;;;;;;10523074;28;20550;-82
2023/09/20 16:07:40;;;;;;;4.05;1.40;;;21.30;99.90;;;;;;10508262;28;20275;-84
2023/09/20 16:13:02;;;;;;;5.45;1.85;;;21.20;99.90;;;;;;10464755;28;20199;-79
2023/09/20 16:18:24;;;;;;;4.22;1.83;;;21.20;99.90;;;;;;10483293;28;20203;-82
2023/09/20 16:23:48;;;;;;;4.32;1.88;;;21.00;99.90;;;;;;10484627;28;20303;-80
2023/09/20 16:29:10;;;;;;;4.68;2.92;;;20.90;99.90;;;;;;10480880;28;20253;-80
2023/09/20 16:34:33;;;;;;;6.05;4.43;;;20.80;99.90;;;;;;10509685;28;20282;-80
2023/09/20 16:39:56;;;;;;;5.63;3.65;;;20.60;99.90;;;;;;10480000;28;20532;-80
2023/09/20 16:45:18;;;;;;;6.20;3.08;;;20.50;99.90;;;;;;10449470;28;20231;-81
2023/09/20 16:50:41;;;;;;;3.58;2.78;;;20.50;99.90;;;;;;10480902;28;20226;-80
2023/09/20 16:56:04;;;;;;;3.95;2.80;;;20.40;99.90;;;;;;10480582;28;20235;-78
2023/09/20 17:01:26;;;;;;;4.57;2.88;;;20.20;99.90;;;;;;10482863;28;20195;-80
2023/09/20 17:06:48;;;;;;;5.68;3.05;;;20.10;1.00;;;;;;10488885;28;20234;-84
2023/09/20 17:12:10;;;;;;;5.40;4.18;;;19.90;1.00;;;;;;10483184;28;20209;-79
2023/09/20 17:17:32;;;;;;;9.10;6.07;;;19.70;1.00;;;;;;10489219;28;20199;-84
2023/09/20 17:22:54;;;;;;;15.20;8.55;;;19.60;1.00;;;;;;10473007;28;20227;-82
2023/09/20 17:28:15;;;;;;;13.27;8.75;;;19.50;1.00;;;;;;10479454;28;20509;-82
2023/09/20 17:33:37;;;;;;;19.75;10.35;;;19.30;1.00;;;;;;10510302;28;20227;-81
2023/09/20 17:39:01;;;;;;;28.52;11.77;;;19.30;1.00;;;;;;10503738;28;20273;-79
2023/09/20 17:44:23;;;;;;;24.38;11.75;;;19.20;1.00;;;;;;10505009;28;20225;-79
2023/09/20 17:49:44;;;;;;;17.38;8.85;;;19.10;1.00;;;;;;10471917;28;20203;-79
2023/09/20 17:55:07;;;;;;;13.77;8.27;;;19.00;1.00;;;;;;10478251;28;20278;-79
2023/09/20 18:00:29;;;;;;;16.17;7.68;;;18.90;1.00;;;;;;10487648;28;20496;-79
2023/09/20 18:05:51;;;;;;;12.75;6.93;;;18.80;99.90;;;;;;10514743;28;20242;-80
2023/09/20 18:11:14;;;;;;;10.45;5.88;;;18.60;92.80;;;;;;10502116;28;20195;-79
2023/09/20 18:16:35;;;;;;;9.18;5.50;;;18.50;99.90;;;;;;10490799;28;20249;-80
2023/09/20 18:21:57;;;;;;;9.95;5.78;;;18.40;99.90;;;;;;10463410;28;20199;-80
2023/09/20 18:27:19;;;;;;;6.88;5.05;;;18.50;99.90;;;;;;10480668;28;20522;-79
2023/09/20 18:32:41;;;;;;;6.43;4.05;;;18.40;99.90;;;;;;10484845;28;20221;-84
2023/09/20 18:38:03;;;;;;;7.07;4.15;;;18.40;99.90;;;;;;10495069;28;20206;-80
2023/09/20 18:43:25;;;;;;;8.10;4.78;;;18.40;99.90;;;;;;10477266;28;20216;-81
2023/09/20 18:48:49;;;;;;;7.78;5.65;;;18.30;99.90;;;;;;10479379;28;20211;-83
2023/09/20 18:54:13;;;;;;;13.07;9.07;;;18.20;1.00;;;;;;10477104;28;20196;-81
2023/09/20 18:59:42;;;;;;;12.15;8.48;;;18.20;1.00;;;;;;10478178;28;20235;-78
2023/09/20 19:05:04;;;;;;;10.13;7.03;;;18.00;99.90;;;;;;10494571;28;20219;-80
2023/09/20 19:10:25;;;;;;;9.50;6.93;;;18.10;1.00;;;;;;10517883;28;20213;-79
2023/09/20 19:15:46;;;;;;;11.57;7.32;;;17.80;99.90;;;;;;10460018;28;20204;-79
2023/09/20 19:21:10;;;;;;;16.13;7.57;;;17.70;1.00;;;;;;10484108;28;20187;-82
2023/09/20 19:26:31;;;;;;;18.08;10.32;;;17.60;1.00;;;;;;10496925;28;20508;-80
2023/09/20 19:31:53;;;;;;;21.45;9.82;;;;;;;;;;10479293;28;20487;-79
2023/09/20 19:37:41;;;;;;;18.45;10.65;;;17.50;1.00;;;;;;10483516;28;20200;-79
2023/09/20 19:43:03;;;;;;;18.42;9.93;;;17.50;99.90;;;;;;10484327;28;20224;-79
2023/09/20 19:48:25;;;;;;;20.45;11.00;;;17.50;99.90;;;;;;10483368;28;20202;-82
2023/09/20 19:53:47;;;;;;;18.75;10.73;;;17.30;20.60;;;;;;10464861;28;20203;-82
2023/09/20 19:59:11;;;;;;;17.98;10.77;;;17.20;97.40;;;;;;10482783;28;20311;-79
2023/09/20 20:04:32;;;;;;;19.48;10.35;;;17.00;8.90;;;;;;10477565;28;20223;-80
2023/09/20 20:09:54;;;;;;;16.95;10.70;;;17.00;1.00;;;;;;10482268;28;20237;-80
2023/09/20 20:21:02;;;;;;;11.65;8.23;;;16.90;1.00;;;;;;10512838;28;20437;-80
2023/09/20 20:26:25;;;;;;;13.38;7.30;;;16.90;1.00;;;;;;10513376;28;20227;-81
2023/09/20 20:31:48;;;;;;;12.32;8.98;;;16.90;1.00;;;;;;10504985;28;20786;-79
2023/09/20 20:37:09;;;;;;;14.18;9.45;;;16.70;99.90;;;;;;10472963;28;20223;-79
2023/09/20 20:42:32;;;;;;;13.65;9.57;;;16.70;1.00;;;;;;10481430;28;20202;-80
2023/09/20 20:47:53;;;;;;;13.48;8.57;;;16.70;99.90;;;;;;10576906;28;20335;-80
2023/09/20 20:53:20;;;;;;;12.68;8.10;;;16.80;1.00;;;;;;10538160;28;20270;-82
2023/09/20 20:58:42;;;;;;;10.13;6.57;;;16.60;99.90;;;;;;10479249;28;20310;-82
2023/09/20 21:04:08;;;;;;;9.95;6.95;;;;;;;;;;10487124;28;20528;-79
2023/09/20 21:09:30;;;;;;;9.95;6.47;;;;;;;;;;10548364;28;20216;-79
2023/09/20 21:14:53;;;;;;;18.42;6.72;;;;;;;;;;10553485;28;20206;-81
2023/09/20 21:20:20;;;;;;;9.90;6.38;;;;;;;;;;10547983;28;20190;-80
2023/09/20 21:25:42;;;;;;;10.05;6.20;;;;;;;;;;10553218;28;20229;-80
2023/09/20 21:31:13;;;;;;;12.32;7.18;;;16.30;99.90;;;;;;10551260;28;20508;-80
2023/09/20 21:36:35;;;;;;;11.55;7.43;;;16.40;1.00;;;;;;10532603;28;20194;-79
2023/09/20 21:41:58;;;;;;;14.07;7.45;;;16.30;1.00;;;;;;10504239;28;20195;-79
2023/09/20 21:47:21;;;;;;;11.25;7.20;;;16.20;1.00;;;;;;10538600;28;20233;-79
2023/09/20 21:52:44;;;;;;;9.48;6.30;;;;;;;;;;10561334;28;20191;-79
2023/09/20 21:58:05;;;;;;;8.20;5.25;;;16.20;5.40;;;;;;10543129;28;20552;-82
2023/09/20 22:03:28;;;;;;;10.38;5.97;;;16.30;99.90;;;;;;10510516;28;20530;-79
2023/09/20 22:08:53;;;;;;;10.63;6.13;;;16.20;1.00;;;;;;10502769;28;20421;-81
2023/09/20 22:14:18;;;;;;;10.02;5.47;;;16.10;1.00;;;;;;10506211;28;20396;-80
2023/09/20 22:19:41;;;;;;;8.82;5.05;;;16.00;99.90;;;;;;10529081;28;20257;-81
2023/09/20 22:25:03;;;;;;;8.48;3.92;;;16.10;73.60;;;;;;10551080;28;20274;-80
2023/09/20 22:30:25;;;;;;;6.05;3.75;;;16.00;1.00;;;;;;10539888;28;20244;-79
2023/09/20 22:35:48;;;;;;;6.38;4.20;;;15.90;99.90;;;;;;10533522;28;20211;-80
2023/09/20 22:41:17;;;;;;;9.10;4.13;;;15.90;1.00;;;;;;10543094;28;20201;-79
2023/09/20 22:46:41;;;;;;;10.70;4.32;;;15.80;1.00;;;;;;10538706;28;20229;-82
2023/09/20 22:52:04;;;;;;;7.15;4.30;;;15.80;1.00;;;;;;10569188;28;20197;-79
2023/09/20 22:57:27;;;;;;;14.30;7.25;;;15.80;1.00;;;;;;10530535;28;20240;-83
2023/09/20 23:02:52;;;;;;;11.73;6.50;;;15.80;1.00;;;;;;10545898;28;20250;-79
2023/09/20 23:08:20;;;;;;;7.97;4.97;;;15.70;99.90;;;;;;10504588;28;20239;-82
2023/09/20 23:13:42;;;;;;;7.25;4.82;;;15.70;1.00;;;;;;10529016;28;20199;-79
2023/09/20 23:19:05;;;;;;;7.53;4.60;;;;;;;;;;10508526;28;20196;-79
2023/09/20 23:24:28;;;;;;;9.05;5.20;;;;;;;;;;10498097;28;20234;-81
2023/09/20 23:29:49;;;;;;;8.35;4.57;;;15.50;99.90;;;;;;10485649;28;20481;-82
2023/09/20 23:35:12;;;;;;;8.13;4.85;;;15.60;99.90;;;;;;10513424;28;20230;-80
2023/09/20 23:40:35;;;;;;;5.88;4.07;;;;;;;;;;10482868;28;20199;-79
2023/09/20 23:46:05;;;;;;;6.13;4.65;;;;;;;;;;10483136;28;20230;-81
2023/09/20 23:51:27;;;;;;;7.28;4.45;;;;;;;;;;10483427;28;20195;-78
2023/09/20 23:56:49;;;;;;;5.43;4.07;;;;;;;;;;10481411;28;20235;-80
